AU-0085 weather

Nambung Station Private Airstrip
Western Australia, Australia

Public forecast

Using degrees Celsius for public forecast. Weather courtesy of forecast.io.

Closest aviation weather report (METAR) to Nambung Station Private Airstrip

Closest report is RAAF Base Pearce, 77.0 nm (142.6 km) SSE. Retrieved 2020/02/18 21:30 UTC (0 seconds ago):

YPEA 182130Z 13007KT 9999 SHRA FEW090TCU SCT140 BKN235 24/08 Q1012

Closest aviation forecast (TAF) to Nambung Station Private Airstrip

Forecast is more than 6 hours old.

Closest forecast is RAAF Base Pearce, 77.0 nm (142.6 km) SSE. Retrieved 2020/02/18 12:33 UTC (9 hours ago):

TAF YPEA 181109Z 1812/1906 09012KT CAVOK FM181500 08015G25KT CAVOK FM190100 07012KT CAVOK